Six Mile Run, Pennsylvania
Current Conditions -  °F | °C
As of 6:53 AM on Friday 24 Oct 2014 (Local Time) from KAOO Reporting Station
Overcast Overcast  
Wind Chill: 44°   Ceiling: 2100
Heat Index: 48°   Visibility: 10mi
Dew Point: 41°   Wind: 9mph
Humidity: 77%   Direction: 330°NNW
Pressure: 30.03"   Gusts: NA
Location:  40.18°N, 78.21°W
Report Text: KAOO 241053Z AUTO 33008KT 10SM OVC021 09/05 A3003 RMK AO2 SLP172 T00890050
Loading
Personal Weather Stations






























Interactive Weather Map
Tropical Storm Tracking
New forecast layout! Learn more

10-Day Weather Forecast

Advertisements
Track Severe Weather on mobile